Etusivu
METAR-TAF:

METAR-TAF

Lentoasemat :

Burnett County Airport

Siren, Wisconsin, Yhdysvallat

Leveyspiiri: 45-49-22N, Pituuspiiri: 092-22-21W, korkeus merenpinnasta: 301 m

Tämänhetkinen sää

Tämä raportti tehtiin 23 minuuttia sitten, kello 03.35 UTC
tyyntä
Lämpötila 3°C
Kosteus 100%
Ilmanpaine 1019 hPa
Näkyvyys: 16.1 km
selkeää

METAR: KRZN 230335Z AUTO 00000KT 10SM CLR 03/03 A3010 RMK AO2 T00330031

Aika: 22:58 (03:58 UTC)


TAF: puuttuu

Säähavainnot ja -ennusteet yli 4000 lentoasemalta (METAR- ja TAF-raportit).

Käytössä olevat sääasemat on merkitty karttaan keltaisilla ja punaisilla pisteillä.

Aseta hiiri pisteen päälle nähdäksesi sääaseman nimen.

Klikkaa sitten nähdäksesi säähavainnot ja -ennusteet.

Kartan vaihtaminen: klikkaa mustalla rastilla varustettuja vihreitä pisteitä, niin voit zoomata sisään; viivalla varustettua vihreää pistettä, niin voit zoomata ulos tai vihreitä nuolia, niin pääset viereisille kartoille.


METAR-TAF: